sensor_id;sensor_type;location;lat;lon;timestamp;P1;durP1;ratioP1;P2;durP2;ratioP2
13868;SDS011;7004;48.206;16.402;2022-11-20T00:01:20;29.27;;;17.23;;
13868;SDS011;7004;48.206;16.402;2022-11-20T00:03:50;31.20;;;18.53;;
13868;SDS011;7004;48.206;16.402;2022-11-20T00:06:19;36.37;;;18.27;;
13868;SDS011;7004;48.206;16.402;2022-11-20T00:08:47;30.43;;;18.50;;
13868;SDS011;7004;48.206;16.402;2022-11-20T00:11:19;31.70;;;17.93;;
13868;SDS011;7004;48.206;16.402;2022-11-20T00:13:49;29.70;;;18.03;;
13868;SDS011;7004;48.206;16.402;2022-11-20T00:16:18;30.07;;;18.27;;
13868;SDS011;7004;48.206;16.402;2022-11-20T00:18:47;29.90;;;18.17;;
13868;SDS011;7004;48.206;16.402;2022-11-20T00:21:15;31.17;;;18.27;;
13868;SDS011;7004;48.206;16.402;2022-11-20T00:23:51;33.67;;;18.40;;
13868;SDS011;7004;48.206;16.402;2022-11-20T00:26:19;31.33;;;18.17;;
13868;SDS011;7004;48.206;16.402;2022-11-20T00:28:51;31.37;;;18.07;;
13868;SDS011;7004;48.206;16.402;2022-11-20T00:31:20;27.60;;;16.87;;
13868;SDS011;7004;48.206;16.402;2022-11-20T00:33:47;30.37;;;18.37;;
13868;SDS011;7004;48.206;16.402;2022-11-20T00:36:14;30.23;;;17.57;;
13868;SDS011;7004;48.206;16.402;2022-11-20T00:38:43;27.67;;;16.83;;
13868;SDS011;7004;48.206;16.402;2022-11-20T00:41:11;26.63;;;16.80;;
13868;SDS011;7004;48.206;16.402;2022-11-20T00:43:40;31.33;;;17.43;;
13868;SDS011;7004;48.206;16.402;2022-11-20T00:46:07;27.90;;;17.63;;
13868;SDS011;7004;48.206;16.402;2022-11-20T00:48:45;26.53;;;17.40;;
13868;SDS011;7004;48.206;16.402;2022-11-20T00:51:13;28.30;;;16.93;;
13868;SDS011;7004;48.206;16.402;2022-11-20T00:53:42;25.60;;;16.67;;
13868;SDS011;7004;48.206;16.402;2022-11-20T00:56:10;28.03;;;17.13;;
13868;SDS011;7004;48.206;16.402;2022-11-20T00:58:41;26.67;;;17.10;;
13868;SDS011;7004;48.206;16.402;2022-11-20T01:01:17;29.20;;;16.90;;
13868;SDS011;7004;48.206;16.402;2022-11-20T01:03:49;25.50;;;16.70;;
13868;SDS011;7004;48.206;16.402;2022-11-20T01:06:18;27.80;;;18.17;;
13868;SDS011;7004;48.206;16.402;2022-11-20T01:08:59;28.20;;;17.13;;
13868;SDS011;7004;48.206;16.402;2022-11-20T01:11:30;28.53;;;16.87;;
13868;SDS011;7004;48.206;16.402;2022-11-20T01:14:04;29.03;;;17.13;;
13868;SDS011;7004;48.206;16.402;2022-11-20T01:16:33;27.40;;;16.77;;
13868;SDS011;7004;48.206;16.402;2022-11-20T01:19:04;26.13;;;16.93;;
13868;SDS011;7004;48.206;16.402;2022-11-20T01:21:34;26.57;;;16.67;;
13868;SDS011;7004;48.206;16.402;2022-11-20T01:24:04;27.57;;;17.80;;
13868;SDS011;7004;48.206;16.402;2022-11-20T01:26:33;26.50;;;17.77;;
13868;SDS011;7004;48.206;16.402;2022-11-20T01:29:02;29.27;;;17.80;;
13868;SDS011;7004;48.206;16.402;2022-11-20T01:31:30;28.40;;;18.13;;
13868;SDS011;7004;48.206;16.402;2022-11-20T01:34:05;28.37;;;16.97;;
13868;SDS011;7004;48.206;16.402;2022-11-20T01:36:38;27.90;;;17.33;;
13868;SDS011;7004;48.206;16.402;2022-11-20T01:39:16;30.27;;;17.67;;
13868;SDS011;7004;48.206;16.402;2022-11-20T01:41:49;27.90;;;17.17;;
13868;SDS011;7004;48.206;16.402;2022-11-20T01:47:39;27.03;;;16.43;;
13868;SDS011;7004;48.206;16.402;2022-11-20T01:50:13;30.27;;;17.97;;
13868;SDS011;7004;48.206;16.402;2022-11-20T01:53:00;29.37;;;18.00;;
13868;SDS011;7004;48.206;16.402;2022-11-20T01:55:34;28.27;;;16.83;;
13868;SDS011;7004;48.206;16.402;2022-11-20T01:58:06;28.57;;;17.77;;
13868;SDS011;7004;48.206;16.402;2022-11-20T02:00:33;28.53;;;17.43;;
13868;SDS011;7004;48.206;16.402;2022-11-20T02:03:01;27.50;;;17.57;;
13868;SDS011;7004;48.206;16.402;2022-11-20T02:08:18;27.30;;;17.67;;
13868;SDS011;7004;48.206;16.402;2022-11-20T02:10:47;29.50;;;18.13;;
13868;SDS011;7004;48.206;16.402;2022-11-20T02:13:14;29.27;;;17.97;;
13868;SDS011;7004;48.206;16.402;2022-11-20T02:16:00;31.50;;;17.77;;
13868;SDS011;7004;48.206;16.402;2022-11-20T02:18:29;29.63;;;17.97;;
13868;SDS011;7004;48.206;16.402;2022-11-20T02:20:58;29.37;;;17.67;;
13868;SDS011;7004;48.206;16.402;2022-11-20T02:23:39;28.20;;;17.70;;
13868;SDS011;7004;48.206;16.402;2022-11-20T02:26:17;28.00;;;18.03;;
13868;SDS011;7004;48.206;16.402;2022-11-20T02:28:46;28.90;;;18.23;;
13868;SDS011;7004;48.206;16.402;2022-11-20T02:31:12;31.83;;;19.00;;
13868;SDS011;7004;48.206;16.402;2022-11-20T02:33:38;27.90;;;18.27;;
13868;SDS011;7004;48.206;16.402;2022-11-20T02:36:05;32.47;;;18.63;;
13868;SDS011;7004;48.206;16.402;2022-11-20T02:38:37;30.90;;;18.80;;
13868;SDS011;7004;48.206;16.402;2022-11-20T02:41:03;31.03;;;19.70;;
13868;SDS011;7004;48.206;16.402;2022-11-20T02:43:30;33.43;;;19.00;;
13868;SDS011;7004;48.206;16.402;2022-11-20T02:45:56;28.03;;;17.97;;
13868;SDS011;7004;48.206;16.402;2022-11-20T02:48:22;29.23;;;18.10;;
13868;SDS011;7004;48.206;16.402;2022-11-20T02:50:48;31.23;;;19.13;;
13868;SDS011;7004;48.206;16.402;2022-11-20T02:53:14;32.03;;;18.17;;
13868;SDS011;7004;48.206;16.402;2022-11-20T02:55:40;28.83;;;17.50;;
13868;SDS011;7004;48.206;16.402;2022-11-20T02:58:09;32.07;;;19.17;;
13868;SDS011;7004;48.206;16.402;2022-11-20T03:00:35;29.17;;;17.77;;
13868;SDS011;7004;48.206;16.402;2022-11-20T03:03:01;32.20;;;18.97;;
13868;SDS011;7004;48.206;16.402;2022-11-20T03:05:28;27.50;;;18.20;;
13868;SDS011;7004;48.206;16.402;2022-11-20T03:07:54;28.83;;;17.50;;
13868;SDS011;7004;48.206;16.402;2022-11-20T03:10:20;31.57;;;19.83;;
13868;SDS011;7004;48.206;16.402;2022-11-20T03:12:47;31.87;;;19.37;;
13868;SDS011;7004;48.206;16.402;2022-11-20T03:15:18;31.70;;;19.03;;
13868;SDS011;7004;48.206;16.402;2022-11-20T03:17:45;32.10;;;18.53;;
13868;SDS011;7004;48.206;16.402;2022-11-20T03:20:11;32.47;;;18.00;;
13868;SDS011;7004;48.206;16.402;2022-11-20T03:22:38;33.57;;;20.00;;
13868;SDS011;7004;48.206;16.402;2022-11-20T03:25:04;31.13;;;18.50;;
13868;SDS011;7004;48.206;16.402;2022-11-20T03:27:31;32.97;;;19.43;;
13868;SDS011;7004;48.206;16.402;2022-11-20T03:30:02;32.37;;;18.97;;
13868;SDS011;7004;48.206;16.402;2022-11-20T03:32:29;32.33;;;19.60;;
13868;SDS011;7004;48.206;16.402;2022-11-20T03:34:55;29.77;;;18.37;;
13868;SDS011;7004;48.206;16.402;2022-11-20T03:37:22;31.17;;;19.27;;
13868;SDS011;7004;48.206;16.402;2022-11-20T03:39:48;30.50;;;19.30;;
13868;SDS011;7004;48.206;16.402;2022-11-20T03:42:14;31.37;;;18.70;;
13868;SDS011;7004;48.206;16.402;2022-11-20T03:44:59;33.30;;;19.87;;
13868;SDS011;7004;48.206;16.402;2022-11-20T03:47:25;32.63;;;20.10;;
13868;SDS011;7004;48.206;16.402;2022-11-20T03:49:51;33.80;;;20.27;;
13868;SDS011;7004;48.206;16.402;2022-11-20T03:52:17;31.50;;;19.80;;
13868;SDS011;7004;48.206;16.402;2022-11-20T03:54:43;34.03;;;19.80;;
13868;SDS011;7004;48.206;16.402;2022-11-20T03:57:09;31.20;;;19.20;;
13868;SDS011;7004;48.206;16.402;2022-11-20T03:59:35;36.47;;;20.23;;
13868;SDS011;7004;48.206;16.402;2022-11-20T04:02:01;34.73;;;20.90;;
13868;SDS011;7004;48.206;16.402;2022-11-20T04:04:27;37.03;;;20.97;;
13868;SDS011;7004;48.206;16.402;2022-11-20T04:06:54;42.53;;;22.77;;
13868;SDS011;7004;48.206;16.402;2022-11-20T04:09:20;37.77;;;21.93;;
13868;SDS011;7004;48.206;16.402;2022-11-20T04:11:46;36.90;;;20.40;;
13868;SDS011;7004;48.206;16.402;2022-11-20T04:14:12;34.40;;;21.33;;
13868;SDS011;7004;48.206;16.402;2022-11-20T04:16:40;37.77;;;21.23;;
13868;SDS011;7004;48.206;16.402;2022-11-20T04:19:09;32.80;;;20.80;;
13868;SDS011;7004;48.206;16.402;2022-11-20T04:21:38;35.37;;;21.63;;
13868;SDS011;7004;48.206;16.402;2022-11-20T04:24:04;36.17;;;21.57;;
13868;SDS011;7004;48.206;16.402;2022-11-20T04:26:31;36.67;;;21.57;;
13868;SDS011;7004;48.206;16.402;2022-11-20T04:28:58;33.80;;;20.77;;
13868;SDS011;7004;48.206;16.402;2022-11-20T04:31:28;38.03;;;22.83;;
13868;SDS011;7004;48.206;16.402;2022-11-20T04:34:00;40.00;;;22.00;;
13868;SDS011;7004;48.206;16.402;2022-11-20T04:36:28;35.03;;;20.63;;
13868;SDS011;7004;48.206;16.402;2022-11-20T04:38:56;37.17;;;21.83;;
13868;SDS011;7004;48.206;16.402;2022-11-20T04:41:25;35.50;;;21.83;;
13868;SDS011;7004;48.206;16.402;2022-11-20T04:43:56;36.03;;;20.73;;
13868;SDS011;7004;48.206;16.402;2022-11-20T04:46:28;33.97;;;21.23;;
13868;SDS011;7004;48.206;16.402;2022-11-20T04:48:56;36.40;;;22.17;;
13868;SDS011;7004;48.206;16.402;2022-11-20T04:51:24;35.57;;;20.20;;
13868;SDS011;7004;48.206;16.402;2022-11-20T04:53:50;37.63;;;21.70;;
13868;SDS011;7004;48.206;16.402;2022-11-20T04:56:17;32.77;;;19.83;;
13868;SDS011;7004;48.206;16.402;2022-11-20T04:58:43;37.87;;;21.73;;
13868;SDS011;7004;48.206;16.402;2022-11-20T05:01:11;32.27;;;20.87;;
13868;SDS011;7004;48.206;16.402;2022-11-20T05:03:43;36.43;;;20.67;;
13868;SDS011;7004;48.206;16.402;2022-11-20T05:06:14;39.27;;;21.73;;
13868;SDS011;7004;48.206;16.402;2022-11-20T05:08:42;37.03;;;20.80;;
13868;SDS011;7004;48.206;16.402;2022-11-20T05:11:10;37.70;;;21.60;;
13868;SDS011;7004;48.206;16.402;2022-11-20T05:13:39;36.57;;;20.93;;
13868;SDS011;7004;48.206;16.402;2022-11-20T05:16:07;36.40;;;21.17;;
13868;SDS011;7004;48.206;16.402;2022-11-20T05:18:52;37.03;;;20.97;;
13868;SDS011;7004;48.206;16.402;2022-11-20T05:21:19;37.07;;;21.93;;
13868;SDS011;7004;48.206;16.402;2022-11-20T05:23:46;35.37;;;21.70;;
13868;SDS011;7004;48.206;16.402;2022-11-20T05:26:14;36.00;;;21.00;;
13868;SDS011;7004;48.206;16.402;2022-11-20T05:28:44;36.40;;;21.07;;
13868;SDS011;7004;48.206;16.402;2022-11-20T05:31:11;35.87;;;21.30;;
13868;SDS011;7004;48.206;16.402;2022-11-20T05:33:41;41.77;;;23.27;;
13868;SDS011;7004;48.206;16.402;2022-11-20T05:36:09;35.37;;;21.97;;
13868;SDS011;7004;48.206;16.402;2022-11-20T05:38:37;32.97;;;20.43;;
13868;SDS011;7004;48.206;16.402;2022-11-20T05:43:42;34.90;;;20.10;;
13868;SDS011;7004;48.206;16.402;2022-11-20T05:46:12;34.03;;;21.00;;
13868;SDS011;7004;48.206;16.402;2022-11-20T05:48:40;34.50;;;18.60;;
13868;SDS011;7004;48.206;16.402;2022-11-20T05:51:09;35.80;;;20.93;;
13868;SDS011;7004;48.206;16.402;2022-11-20T05:53:37;33.17;;;20.43;;
13868;SDS011;7004;48.206;16.402;2022-11-20T05:56:07;38.67;;;20.93;;
13868;SDS011;7004;48.206;16.402;2022-11-20T05:58:40;33.40;;;19.73;;
13868;SDS011;7004;48.206;16.402;2022-11-20T06:01:20;34.03;;;20.57;;
13868;SDS011;7004;48.206;16.402;2022-11-20T06:03:48;31.87;;;20.17;;
13868;SDS011;7004;48.206;16.402;2022-11-20T06:06:16;34.30;;;19.43;;
13868;SDS011;7004;48.206;16.402;2022-11-20T06:08:44;33.90;;;20.90;;
13868;SDS011;7004;48.206;16.402;2022-11-20T06:11:11;33.13;;;21.07;;
13868;SDS011;7004;48.206;16.402;2022-11-20T06:13:39;33.50;;;20.57;;
13868;SDS011;7004;48.206;16.402;2022-11-20T06:16:05;32.30;;;19.33;;
13868;SDS011;7004;48.206;16.402;2022-11-20T06:18:32;33.53;;;20.03;;
13868;SDS011;7004;48.206;16.402;2022-11-20T06:21:08;34.27;;;20.50;;
13868;SDS011;7004;48.206;16.402;2022-11-20T06:23:43;34.30;;;21.30;;
13868;SDS011;7004;48.206;16.402;2022-11-20T06:26:11;37.07;;;22.13;;
13868;SDS011;7004;48.206;16.402;2022-11-20T06:28:43;36.13;;;21.87;;
13868;SDS011;7004;48.206;16.402;2022-11-20T06:31:11;34.30;;;20.27;;
13868;SDS011;7004;48.206;16.402;2022-11-20T06:33:40;37.30;;;21.10;;
13868;SDS011;7004;48.206;16.402;2022-11-20T06:36:07;35.03;;;20.90;;
13868;SDS011;7004;48.206;16.402;2022-11-20T06:38:34;40.10;;;21.80;;
13868;SDS011;7004;48.206;16.402;2022-11-20T06:41:01;34.83;;;20.53;;
13868;SDS011;7004;48.206;16.402;2022-11-20T06:43:28;37.33;;;21.60;;
13868;SDS011;7004;48.206;16.402;2022-11-20T06:45:55;37.50;;;21.43;;
13868;SDS011;7004;48.206;16.402;2022-11-20T06:48:24;34.40;;;20.93;;
13868;SDS011;7004;48.206;16.402;2022-11-20T06:50:52;37.87;;;21.97;;
13868;SDS011;7004;48.206;16.402;2022-11-20T06:53:18;35.40;;;21.77;;
13868;SDS011;7004;48.206;16.402;2022-11-20T06:55:45;37.23;;;21.43;;
13868;SDS011;7004;48.206;16.402;2022-11-20T06:58:12;37.50;;;21.60;;
13868;SDS011;7004;48.206;16.402;2022-11-20T07:00:39;36.97;;;21.87;;
13868;SDS011;7004;48.206;16.402;2022-11-20T07:03:07;36.27;;;20.70;;
13868;SDS011;7004;48.206;16.402;2022-11-20T07:05:35;37.10;;;22.00;;
13868;SDS011;7004;48.206;16.402;2022-11-20T07:08:02;37.03;;;21.87;;
13868;SDS011;7004;48.206;16.402;2022-11-20T07:10:29;38.73;;;22.83;;
13868;SDS011;7004;48.206;16.402;2022-11-20T07:12:56;37.80;;;21.53;;
13868;SDS011;7004;48.206;16.402;2022-11-20T07:15:24;37.87;;;21.63;;
13868;SDS011;7004;48.206;16.402;2022-11-20T07:17:51;37.23;;;22.37;;
13868;SDS011;7004;48.206;16.402;2022-11-20T07:20:17;34.60;;;21.37;;
13868;SDS011;7004;48.206;16.402;2022-11-20T07:22:43;34.87;;;21.30;;
13868;SDS011;7004;48.206;16.402;2022-11-20T07:25:11;36.87;;;21.67;;
13868;SDS011;7004;48.206;16.402;2022-11-20T07:27:37;37.27;;;21.83;;
13868;SDS011;7004;48.206;16.402;2022-11-20T07:30:03;37.17;;;22.80;;
13868;SDS011;7004;48.206;16.402;2022-11-20T07:32:30;37.03;;;22.20;;
13868;SDS011;7004;48.206;16.402;2022-11-20T07:34:56;37.80;;;22.93;;
13868;SDS011;7004;48.206;16.402;2022-11-20T07:37:22;36.90;;;22.57;;
13868;SDS011;7004;48.206;16.402;2022-11-20T07:39:48;40.10;;;22.27;;
13868;SDS011;7004;48.206;16.402;2022-11-20T07:42:14;37.60;;;22.60;;
13868;SDS011;7004;48.206;16.402;2022-11-20T07:44:41;36.17;;;21.63;;
13868;SDS011;7004;48.206;16.402;2022-11-20T07:47:07;33.53;;;21.43;;
13868;SDS011;7004;48.206;16.402;2022-11-20T07:49:33;37.63;;;22.83;;
13868;SDS011;7004;48.206;16.402;2022-11-20T07:51:59;35.77;;;22.13;;
13868;SDS011;7004;48.206;16.402;2022-11-20T07:54:25;38.50;;;21.93;;
13868;SDS011;7004;48.206;16.402;2022-11-20T07:56:51;37.43;;;22.03;;
13868;SDS011;7004;48.206;16.402;2022-11-20T07:59:19;38.07;;;21.57;;
13868;SDS011;7004;48.206;16.402;2022-11-20T08:01:44;36.47;;;23.00;;
13868;SDS011;7004;48.206;16.402;2022-11-20T08:04:11;36.77;;;22.13;;
13868;SDS011;7004;48.206;16.402;2022-11-20T08:06:37;38.43;;;22.10;;
13868;SDS011;7004;48.206;16.402;2022-11-20T08:09:03;37.73;;;22.13;;
13868;SDS011;7004;48.206;16.402;2022-11-20T08:11:29;38.53;;;21.20;;
13868;SDS011;7004;48.206;16.402;2022-11-20T08:14:24;37.50;;;22.10;;
13868;SDS011;7004;48.206;16.402;2022-11-20T08:16:52;39.17;;;22.30;;
13868;SDS011;7004;48.206;16.402;2022-11-20T08:19:18;38.83;;;22.67;;
13868;SDS011;7004;48.206;16.402;2022-11-20T08:21:45;35.70;;;22.53;;
13868;SDS011;7004;48.206;16.402;2022-11-20T08:24:11;35.20;;;22.13;;
13868;SDS011;7004;48.206;16.402;2022-11-20T08:26:38;39.10;;;22.70;;
13868;SDS011;7004;48.206;16.402;2022-11-20T08:29:05;38.80;;;22.37;;
13868;SDS011;7004;48.206;16.402;2022-11-20T08:31:33;38.03;;;23.27;;
13868;SDS011;7004;48.206;16.402;2022-11-20T08:33:59;42.70;;;23.83;;
13868;SDS011;7004;48.206;16.402;2022-11-20T08:36:25;40.00;;;23.47;;
13868;SDS011;7004;48.206;16.402;2022-11-20T08:38:52;44.03;;;23.97;;
13868;SDS011;7004;48.206;16.402;2022-11-20T08:41:21;38.90;;;23.53;;
13868;SDS011;7004;48.206;16.402;2022-11-20T08:46:28;41.37;;;24.00;;
13868;SDS011;7004;48.206;16.402;2022-11-20T08:49:12;36.73;;;23.10;;
13868;SDS011;7004;48.206;16.402;2022-11-20T08:51:39;41.17;;;23.10;;
13868;SDS011;7004;48.206;16.402;2022-11-20T08:54:05;39.67;;;23.23;;
13868;SDS011;7004;48.206;16.402;2022-11-20T08:56:32;40.67;;;23.73;;
13868;SDS011;7004;48.206;16.402;2022-11-20T08:58:59;41.17;;;23.00;;
13868;SDS011;7004;48.206;16.402;2022-11-20T09:01:25;36.23;;;22.97;;
13868;SDS011;7004;48.206;16.402;2022-11-20T09:03:51;36.80;;;22.50;;
13868;SDS011;7004;48.206;16.402;2022-11-20T09:06:17;40.43;;;23.20;;
13868;SDS011;7004;48.206;16.402;2022-11-20T09:08:43;42.00;;;22.33;;
13868;SDS011;7004;48.206;16.402;2022-11-20T09:11:09;38.73;;;24.07;;
13868;SDS011;7004;48.206;16.402;2022-11-20T09:13:36;38.13;;;22.67;;
13868;SDS011;7004;48.206;16.402;2022-11-20T09:16:04;37.37;;;23.90;;
13868;SDS011;7004;48.206;16.402;2022-11-20T09:18:33;37.97;;;23.50;;
13868;SDS011;7004;48.206;16.402;2022-11-20T09:21:04;40.83;;;25.00;;
13868;SDS011;7004;48.206;16.402;2022-11-20T09:23:36;38.00;;;23.67;;
13868;SDS011;7004;48.206;16.402;2022-11-20T09:26:08;38.67;;;23.10;;
13868;SDS011;7004;48.206;16.402;2022-11-20T09:28:37;38.20;;;23.80;;
13868;SDS011;7004;48.206;16.402;2022-11-20T09:31:07;43.77;;;26.03;;
13868;SDS011;7004;48.206;16.402;2022-11-20T09:33:41;40.80;;;24.53;;
13868;SDS011;7004;48.206;16.402;2022-11-20T09:36:08;40.97;;;25.20;;
13868;SDS011;7004;48.206;16.402;2022-11-20T09:38:34;42.27;;;24.53;;
13868;SDS011;7004;48.206;16.402;2022-11-20T09:41:04;42.20;;;24.37;;
13868;SDS011;7004;48.206;16.402;2022-11-20T09:47:01;40.60;;;24.33;;
13868;SDS011;7004;48.206;16.402;2022-11-20T09:50:04;42.80;;;24.77;;
13868;SDS011;7004;48.206;16.402;2022-11-20T09:53:12;39.07;;;23.23;;
13868;SDS011;7004;48.206;16.402;2022-11-20T09:55:48;40.07;;;23.20;;
13868;SDS011;7004;48.206;16.402;2022-11-20T09:58:57;43.43;;;25.03;;
13868;SDS011;7004;48.206;16.402;2022-11-20T10:01:09;43.43;;;23.50;;
13868;SDS011;7004;48.206;16.402;2022-11-20T10:06:30;43.40;;;24.60;;
13868;SDS011;7004;48.206;16.402;2022-11-20T10:09:04;39.33;;;22.60;;
13868;SDS011;7004;48.206;16.402;2022-11-20T10:11:51;42.07;;;24.73;;
13868;SDS011;7004;48.206;16.402;2022-11-20T10:14:58;43.00;;;25.07;;
13868;SDS011;7004;48.206;16.402;2022-11-20T10:23:35;41.57;;;25.40;;
13868;SDS011;7004;48.206;16.402;2022-11-20T10:29:39;38.70;;;23.60;;
13868;SDS011;7004;48.206;16.402;2022-11-20T10:32:13;41.60;;;24.27;;
13868;SDS011;7004;48.206;16.402;2022-11-20T10:37:27;40.53;;;24.67;;
13868;SDS011;7004;48.206;16.402;2022-11-20T10:42:54;39.60;;;25.17;;
13868;SDS011;7004;48.206;16.402;2022-11-20T10:48:44;44.17;;;25.77;;
13868;SDS011;7004;48.206;16.402;2022-11-20T10:57:17;40.17;;;24.30;;
13868;SDS011;7004;48.206;16.402;2022-11-20T10:59:58;42.30;;;25.87;;
13868;SDS011;7004;48.206;16.402;2022-11-20T11:02:39;44.53;;;25.30;;
13868;SDS011;7004;48.206;16.402;2022-11-20T11:05:16;42.57;;;26.27;;
13868;SDS011;7004;48.206;16.402;2022-11-20T11:07:46;41.20;;;25.30;;
13868;SDS011;7004;48.206;16.402;2022-11-20T11:10:17;42.90;;;25.63;;
13868;SDS011;7004;48.206;16.402;2022-11-20T11:13:01;40.00;;;24.47;;
13868;SDS011;7004;48.206;16.402;2022-11-20T11:15:29;41.57;;;23.93;;
13868;SDS011;7004;48.206;16.402;2022-11-20T11:18:04;42.80;;;25.63;;
13868;SDS011;7004;48.206;16.402;2022-11-20T11:20:51;47.43;;;26.83;;
13868;SDS011;7004;48.206;16.402;2022-11-20T11:23:26;42.33;;;25.53;;
13868;SDS011;7004;48.206;16.402;2022-11-20T11:26:00;47.37;;;28.07;;
13868;SDS011;7004;48.206;16.402;2022-11-20T11:28:29;43.67;;;27.10;;
13868;SDS011;7004;48.206;16.402;2022-11-20T11:30:57;40.77;;;25.60;;
13868;SDS011;7004;48.206;16.402;2022-11-20T11:33:27;43.40;;;27.03;;
13868;SDS011;7004;48.206;16.402;2022-11-20T11:35:59;39.90;;;24.80;;
13868;SDS011;7004;48.206;16.402;2022-11-20T11:38:42;47.67;;;27.47;;
13868;SDS011;7004;48.206;16.402;2022-11-20T11:41:12;38.53;;;24.97;;
13868;SDS011;7004;48.206;16.402;2022-11-20T11:43:54;42.43;;;26.63;;
13868;SDS011;7004;48.206;16.402;2022-11-20T11:46:54;43.23;;;26.03;;
13868;SDS011;7004;48.206;16.402;2022-11-20T11:49:21;43.03;;;26.20;;
13868;SDS011;7004;48.206;16.402;2022-11-20T11:51:58;40.97;;;25.73;;
13868;SDS011;7004;48.206;16.402;2022-11-20T11:54:50;41.93;;;25.87;;
13868;SDS011;7004;48.206;16.402;2022-11-20T12:05:18;42.53;;;26.13;;
13868;SDS011;7004;48.206;16.402;2022-11-20T12:13:39;40.87;;;23.77;;
13868;SDS011;7004;48.206;16.402;2022-11-20T12:16:14;37.20;;;24.50;;
13868;SDS011;7004;48.206;16.402;2022-11-20T12:18:43;41.43;;;26.23;;
13868;SDS011;7004;48.206;16.402;2022-11-20T12:30:38;39.80;;;25.87;;
13868;SDS011;7004;48.206;16.402;2022-11-20T12:36:21;42.97;;;25.57;;
13868;SDS011;7004;48.206;16.402;2022-11-20T12:39:15;44.27;;;25.20;;
13868;SDS011;7004;48.206;16.402;2022-11-20T12:57:21;39.03;;;25.63;;
13868;SDS011;7004;48.206;16.402;2022-11-20T13:00:21;39.30;;;24.73;;
13868;SDS011;7004;48.206;16.402;2022-11-20T13:06:16;36.43;;;23.97;;
13868;SDS011;7004;48.206;16.402;2022-11-20T13:08:54;36.40;;;22.77;;
13868;SDS011;7004;48.206;16.402;2022-11-20T13:11:27;37.60;;;23.57;;
13868;SDS011;7004;48.206;16.402;2022-11-20T13:17:14;38.67;;;23.43;;
13868;SDS011;7004;48.206;16.402;2022-11-20T13:20:05;42.60;;;25.30;;
13868;SDS011;7004;48.206;16.402;2022-11-20T13:22:50;41.53;;;27.07;;
13868;SDS011;7004;48.206;16.402;2022-11-20T13:27:55;40.47;;;25.97;;
13868;SDS011;7004;48.206;16.402;2022-11-20T13:30:25;38.13;;;25.17;;
13868;SDS011;7004;48.206;16.402;2022-11-20T13:32:55;38.10;;;24.77;;
13868;SDS011;7004;48.206;16.402;2022-11-20T13:35:34;37.43;;;24.47;;
13868;SDS011;7004;48.206;16.402;2022-11-20T13:38:09;36.87;;;24.60;;
13868;SDS011;7004;48.206;16.402;2022-11-20T13:41:22;38.60;;;24.73;;
13868;SDS011;7004;48.206;16.402;2022-11-20T13:43:54;37.10;;;23.70;;
13868;SDS011;7004;48.206;16.402;2022-11-20T13:46:45;41.33;;;24.97;;
13868;SDS011;7004;48.206;16.402;2022-11-20T14:01:24;36.87;;;23.30;;
13868;SDS011;7004;48.206;16.402;2022-11-20T14:03:36;40.67;;;24.03;;
13868;SDS011;7004;48.206;16.402;2022-11-20T14:06:05;40.97;;;23.73;;
13868;SDS011;7004;48.206;16.402;2022-11-20T14:08:57;38.47;;;23.63;;
13868;SDS011;7004;48.206;16.402;2022-11-20T14:11:25;37.57;;;23.73;;
13868;SDS011;7004;48.206;16.402;2022-11-20T14:16:31;37.77;;;24.53;;
13868;SDS011;7004;48.206;16.402;2022-11-20T14:21:46;37.93;;;24.77;;
13868;SDS011;7004;48.206;16.402;2022-11-20T14:24:33;43.87;;;27.90;;
13868;SDS011;7004;48.206;16.402;2022-11-20T14:27:01;45.53;;;31.10;;
13868;SDS011;7004;48.206;16.402;2022-11-20T14:29:34;46.20;;;30.23;;
13868;SDS011;7004;48.206;16.402;2022-11-20T14:32:03;37.50;;;24.77;;
13868;SDS011;7004;48.206;16.402;2022-11-20T14:34:31;37.03;;;24.53;;
13868;SDS011;7004;48.206;16.402;2022-11-20T14:37:11;42.13;;;26.90;;
13868;SDS011;7004;48.206;16.402;2022-11-20T14:39:47;39.43;;;24.73;;
13868;SDS011;7004;48.206;16.402;2022-11-20T14:42:22;39.33;;;25.00;;
13868;SDS011;7004;48.206;16.402;2022-11-20T14:44:52;37.63;;;24.00;;
13868;SDS011;7004;48.206;16.402;2022-11-20T14:47:27;39.43;;;24.30;;
13868;SDS011;7004;48.206;16.402;2022-11-20T14:49:56;39.60;;;23.80;;
13868;SDS011;7004;48.206;16.402;2022-11-20T14:52:25;35.50;;;22.10;;
13868;SDS011;7004;48.206;16.402;2022-11-20T14:54:56;37.30;;;24.03;;
13868;SDS011;7004;48.206;16.402;2022-11-20T14:57:28;37.33;;;24.27;;
13868;SDS011;7004;48.206;16.402;2022-11-20T15:00:04;40.20;;;23.60;;
13868;SDS011;7004;48.206;16.402;2022-11-20T15:02:43;38.67;;;24.40;;
13868;SDS011;7004;48.206;16.402;2022-11-20T15:05:12;42.17;;;25.47;;
13868;SDS011;7004;48.206;16.402;2022-11-20T15:07:41;44.33;;;26.50;;
13868;SDS011;7004;48.206;16.402;2022-11-20T15:10:13;60.97;;;37.80;;
13868;SDS011;7004;48.206;16.402;2022-11-20T15:15:51;42.20;;;25.87;;
13868;SDS011;7004;48.206;16.402;2022-11-20T15:18:24;42.37;;;25.07;;
13868;SDS011;7004;48.206;16.402;2022-11-20T15:20:54;37.47;;;24.80;;
13868;SDS011;7004;48.206;16.402;2022-11-20T15:23:22;39.07;;;24.03;;
13868;SDS011;7004;48.206;16.402;2022-11-20T15:25:53;40.20;;;24.97;;
13868;SDS011;7004;48.206;16.402;2022-11-20T15:28:20;51.90;;;31.83;;
13868;SDS011;7004;48.206;16.402;2022-11-20T15:31:05;42.47;;;25.43;;
13868;SDS011;7004;48.206;16.402;2022-11-20T15:33:32;45.33;;;27.33;;
13868;SDS011;7004;48.206;16.402;2022-11-20T15:35:59;43.67;;;26.07;;
13868;SDS011;7004;48.206;16.402;2022-11-20T15:38:26;42.73;;;26.33;;
13868;SDS011;7004;48.206;16.402;2022-11-20T15:40:52;40.73;;;24.90;;
13868;SDS011;7004;48.206;16.402;2022-11-20T15:43:19;40.80;;;26.67;;
13868;SDS011;7004;48.206;16.402;2022-11-20T15:45:47;43.43;;;27.03;;
13868;SDS011;7004;48.206;16.402;2022-11-20T15:48:23;39.13;;;22.37;;
13868;SDS011;7004;48.206;16.402;2022-11-20T15:51:05;37.77;;;22.50;;
13868;SDS011;7004;48.206;16.402;2022-11-20T15:53:38;34.07;;;21.50;;
13868;SDS011;7004;48.206;16.402;2022-11-20T15:56:15;35.13;;;22.27;;
13868;SDS011;7004;48.206;16.402;2022-11-20T15:58:42;37.00;;;22.47;;
13868;SDS011;7004;48.206;16.402;2022-11-20T16:01:12;43.53;;;25.83;;
13868;SDS011;7004;48.206;16.402;2022-11-20T16:03:42;41.57;;;25.47;;
13868;SDS011;7004;48.206;16.402;2022-11-20T16:06:10;46.67;;;26.67;;
13868;SDS011;7004;48.206;16.402;2022-11-20T16:08:37;55.93;;;36.43;;
13868;SDS011;7004;48.206;16.402;2022-11-20T16:11:04;43.70;;;28.37;;
13868;SDS011;7004;48.206;16.402;2022-11-20T16:13:31;48.53;;;29.83;;
13868;SDS011;7004;48.206;16.402;2022-11-20T16:16:23;41.33;;;25.90;;
13868;SDS011;7004;48.206;16.402;2022-11-20T16:18:55;39.20;;;24.57;;
13868;SDS011;7004;48.206;16.402;2022-11-20T16:21:23;38.03;;;22.90;;
13868;SDS011;7004;48.206;16.402;2022-11-20T16:24:05;37.73;;;24.13;;
13868;SDS011;7004;48.206;16.402;2022-11-20T16:26:34;41.67;;;24.77;;
13868;SDS011;7004;48.206;16.402;2022-11-20T16:29:02;39.27;;;24.83;;
13868;SDS011;7004;48.206;16.402;2022-11-20T16:31:30;42.20;;;25.40;;
13868;SDS011;7004;48.206;16.402;2022-11-20T16:33:59;40.80;;;24.87;;
13868;SDS011;7004;48.206;16.402;2022-11-20T16:36:29;41.50;;;24.40;;